Change Date:Time:

Metar of : 11/21/2017 0600UTC
Metar
TAF OPRN 210600Z 2109/2118Z 23010KT 5000 HZ NSC BECMG 2113/2115 4000 NSC
OP LA CITY 00000KT 5000 HZ NSC 20/06 1017 40%
OPAP BW 27004KT 4000 HZ NSC 24/04 Q1018 27%
OPAS 18002KT 9999 05/M10 33%
OPBDN 210600Z 00502KT 1000 CAVOK 23/5 Q1017 RH31%
OPBJ 36002KT 9999 FEW040 FEW120 11/M09 24%
OPBK 00000KT CAVOK 16/01 35%
OPBKN 210600Z 00000KT CAVOK 18/M01 RH28%
OPBKR 32004KT CAVOK 19/06 42%
OPBL 210600Z 00000KT 8000 NSC 26/08 RH32%
OPBN 36004KT CAVOK 20/05 36 %
OPBR 00000KT CAVOK 22/07 39%
OPBW 210600Z 23004KT 4000 HZ NSC 23/08 RH41%
OPCH 36004KT CAVOK 13/M01 Q1022 37%
OPCK 31002KT 9999 SKC 19/02 33%
OPCL 00000KT 9999 FEW040 15/M11 15%
OPDBN 210600Z 05004KT CAVOK 16/M03 Q1023 RH27%
OPDG 18004KT 6000 HZ NSC 23/05 Q1017 31%
OPDH 00000KT CAVOK 09/-08 28%
OPDIK 31002KT CAVOK 19/09 Q1018 50%
OPDIR 23002KT CAVOK 11/-04 34%
OPDU 210600Z 05002KT 5000 FU NSC 21/09 RH45%
OPFA 27004KT 2500 HZ NSC 22/05 Q1018 BECMG 3000 RH33%
OPGP 31004KT 8000 NSC 16/03 42%
OPGT 00000KT 9000 FEW040 13/M08 Q1026 23% A/V CLEAR
OPGU PIS 23002KT 9000 NSC 05/M09 33%
OPGW 31004KT 6000 FU SKC 19/11 62%
OPHQ 00000KT 8000 NSC 18/07 Q1017 RH44%
OPHZ 00000KT 9999 FEW040 05/M04 59%
OPJBD 00000KT 5000 HZ NSC 23/10 44%
OPJG 27002KT 5000 HZ NSC 22/08 Q1017 43%
OPJI 210600Z 36004KT 6000 HZ FEW080 23/M01 Q1019 RH21%
OPJM 31006KT 5000 HZ NSC 21/05 37%
OPKAD 00000KT 6000 HZ NSC 20/08 47%
OPKC 210600Z 05004KT 7000 NSC 26/01 Q1017 RH19%
OPKD 210600Z 04506KT 5000 NSC 23/05 Q1017 RH29% NOSIG
OPKE 210600Z 04504KT 6000 SKC 27/11 Q1018 RH36%
OPKK 00000KT CAVOK 16/01 35%
OPKL 00000KT CAVOK 16/07 57%
OPKLM 00000KT CAVOK 10/-05 35%
OPKLT 210600Z 00000KT CAVOK 10/-09 8044 02/0
OPKP 210600Z 00000KT 4000 HZ NSC 23/10 RH45%
OPKRL 31001KT 5000 HZ NSC 20/09 48%
OPKS 27004KT 5000 FU NSC 20/11 56%
OPLA 38005KT 2000 HZ NSC 21/07 Q1017 A30.01 BECMG 3000 RH41%
OPLRK 210600Z 31502KT 6000 NSC 23/10 Q1020 RH45%
OPMA 31006KT 5000 HZ NSC 22/04 Q1018 32%
OPMB 00000KT 4000 FU NSC 20/11 Q1017 56%
OPME 36006KT CAVOK 10/M01 45%
OPMF 00000KT CAVOK 16/04 44%
OPMIT 210600Z 04504KT 6000 NSC 22/M00 Q1016 RH23%
OPMJ 210600Z 00000KT 4000 FU NSC 25/08 Q1017 RH35% NOSIG OPGD 210600Z 00000KT 8000 NSC 25/08 Q1018 RH35%
OPMJB 00000KT CAVOK 06/M01 61%
OPMPK 210600Z 00000KT 7000 SKC 18/06 Q1019 RH45%
OPMT 27008KT 4000 HZ NSC 21/07 Q1017 NOSIG RH41%
OPNH 210600Z 05004KT 3500 FU NSC 24/12 Q1019 RH46% NOSIG
OPNK 210600Z 00000KT CAVOK 20/M04 Q1020 RH21%
OPNPT 00000KT 7000 NSC 21/09 45%
OPOK 31002KT 6000 NSC 20/06 Q1018 40%
OPPDN 210600Z 36002KT 5000 NSC 23/73 Q1018 RH35%
oppg 210600z 05008KT 8000 SKC 14/m07 Q1023 RH22%
OPPI 210600Z 36002KT 9999 23/09 Q1018 RH43%
OPPSH (41529) 23002KT CAVOK 19/06 RH 42%
OPQT 27004KT CAVOK QBB FEW200 10/M01 Q1025 RH.44%
OPRK 23006KT 6000 NSC 23/09 Q1019 39%
OPRN 00000KT 3000 HZ NSC 20/08 Q1017.6 RH 46%
OPRRI 210600Z 00000KT 10000 NSC 23/09 P1P1 0115
OPRT 00000KT CAVOK 14/M01 Q1025 35%
OPSD 00000KT 9000 FEW040 07/M05 Q1026 40% A/V OH P.CLOUDY
OPSG 00000KT 6000 HZ NSC 21/09 45%
OPSK 210600Z 00000KT 3000 HZ NSC 24/09 Q1017 NOSIG
OPSKD 210600Z 36002KT 6000 NSC 23/09 RH39% NOSIG
OPSKT 00000KT 3000 FU NSC 19/11 62%
OPSS 00000KT CAVOK 15/01 38%
OPST 23006KT 3000 HZ NSC 19/07 Q1017 BECMG 3500 RH46%
OPSW 03102KT 6000 NSC 21/05 Q1017 34%
OPTJM 210600Z 36002KT 6000 NSC 22/09 Q1024 RH43%
OPTMG 18002KT CAVOK 15/04 46%
OPTS 00000KT 0700 NSC 22/06 35%
OPTU 210600Z 05012KT 9999 FEW100 25/M04 Q1019 RH14%
OPUG 31008KT 4000 HZ NSC 19/07 46%
OPZB 210600Z 23009KT 12/M01 Q1023 RH41%
QT1.TAF OPQT 210600Z 2109/2118 31010KT CAVOK
CodeW.DirSpeedVisibilityCloud ConditionTempPressureHumidityStation
OPAP27004KT4000mHaze24oC1018hp27%B-PUR A/P
OPAS18002KT9999m05oC33%ASTORE
OPBJ36002KT9999mPartly Cloudy11oC24%BUNJI
OPBK00000KTClear16oC35%Balakot
OPBKR32004KTClear19oC42%Bhakkar
OPBR00000KTClear22oC39%Bahawalnagar
OPBW23004KT4000mHaze23oC41%Bahawalpur
OPCH36004KTClear13oC1022hp37%Chitral
OPCK31002KT9999mClear19oC33%Chakwal
OPCL00000KT9999mPartly Cloudy15oC15%Chilas
OPDG18004KT6000mHaze23oC1017hp31%D-G-KHAN
OPFA27004KT2500mHaze22oC1018hp33%Faisalabad
OPGP31004KT8000mClear16oC42%GARHI DOPATTA
OPGT00000KT9000mPartly Cloudy13oC1026hpGilgit
OPGU23002KT9000mClear05oC33%Gupis
OPGW31004KT6000mHaze19oC62%Gujranwala
OPHQ00000KT8000mClear18oC1017hp44%Islamabad
OPHZ00000KT9999mPartly Cloudy05oC59%Hunza
OPJBD00000KT5000mHaze23oC44%Joharabad
OPJG27002KT5000mHaze22oC1017hp43%Jhang
OPJI36004KT6000m21%Jiwani
OPJM31006KT5000mHaze21oC37%Jhelum
OPKAD00000KT6000mHaze20oC47%KOT ADDU
OPKC05004KT7000mClear26oC19%KARACHI A/P
OPKD04506KT5000mClear23oCHyderabad
OPKE04504KT6000mClear27oC36%Chhor
OPKK00000KTClear16oC35%Kakul
OPKL00000KTClear16oC57%Kotli
OPKP00000KT4000mHaze23oC45%Khanpur
OPKRL31001KT5000mHaze20oC48%KAROR (LAYYAH)
OPKS27004KT5000mHaze20oC56%Kasur
OPLA38005KT2000mHaze21oC1017hp41%LAHORE A/P
OPMA31006KT5000mHaze22oC1018hp32%Mangla
OPMB00000KT4000mHaze20oC1017hp56%MANDI BAHUDDIN
OPME36006KTClear10oC45%Murree
OPMF00000KTClear16oC44%MUZAFFARABAD
OPMJ00000KT4000mHaze25oC35%MOHENJO DARO
OPMJB00000KTClear06oC61%MALAM JABBA
OPMT27008KT4000mHaze21oC1017hp41%Multan
OPNH05004KT3500mHaze24oCSh Benazirabad
OPNPT00000KT7000mClear21oC45%NOOR PUR THAL
OPOK31002KT6000mClear20oC1018hp40%Okara
OPPG05008KT8000mClear14oC1023hp22%Panjgur
OPPI36002KT9999m23oC1018hp43%Pasni
OPQT27004KTPartly Cloudy10oC1025hp44%Quetta
OPRK23006KT6000mClear23oC1019hp39%R-Y-KHAN
OPRN00000KT3000mHaze20oC46%CHAKLALA- RAWALPINDI
OPRT00000KTClear14oC1025hp35%Rawalakot
OPSD00000KT9000mPartly Cloudy07oC1026hp40%Skardu
OPSK00000KT3000mHaze24oCSukkur
OPSS00000KTClear15oC38%SAIDU SHARIF
OPST23006KT3000mHaze19oC1017hp46%SIAL A/P SIALKOT
OPSW03102KT6000mClear21oC1017hp34%Sahiwal
OPTMG18002KTClear15oC46%Tim Dir
OPTS00000KT0700mClear22oC35%T.T. SINGH
OPTU05012KT9999mPartly Cloudy25oC14%Turbat
OPUG31008KT4000mHaze19oC46%Gujrat